createdAt,value
2019-05-19T00:00:55.450Z,42.03
2019-05-19T00:03:25.795Z,45.98
2019-05-19T00:05:56.005Z,41.20
2019-05-19T00:08:26.437Z,40.05
2019-05-19T00:10:56.847Z,36.13
2019-05-19T00:13:27.182Z,39.83
2019-05-19T00:15:57.404Z,40.83
2019-05-19T00:18:27.737Z,36.00
2019-05-19T00:20:58.127Z,35.13
2019-05-19T00:23:28.585Z,34.05
2019-05-19T00:25:59.016Z,30.90
2019-05-19T00:28:29.496Z,32.88
2019-05-19T00:30:59.774Z,38.67
2019-05-19T00:33:30.249Z,33.28
2019-05-19T00:36:00.562Z,31.35
2019-05-19T00:38:31.315Z,36.48
2019-05-19T00:41:01.952Z,33.13
2019-05-19T00:43:32.200Z,30.50
2019-05-19T00:46:02.723Z,36.05
2019-05-19T00:48:33.384Z,30.48
2019-05-19T00:51:03.599Z,33.10
2019-05-19T00:53:34.382Z,32.20
2019-05-19T00:56:05.487Z,30.90
2019-05-19T00:58:36.215Z,32.42
2019-05-19T01:01:06.521Z,31.50
2019-05-19T01:03:36.786Z,34.13
2019-05-19T01:06:07.233Z,34.48
2019-05-19T01:08:37.500Z,33.13
2019-05-19T01:11:08.065Z,31.45
2019-05-19T01:13:38.349Z,27.80
2019-05-19T01:16:08.467Z,35.98
2019-05-19T01:18:38.868Z,27.20
2019-05-19T01:21:09.347Z,31.68
2019-05-19T01:23:39.488Z,62.40
2019-05-19T01:26:09.944Z,29.02
2019-05-19T01:28:40.206Z,29.75
2019-05-19T01:31:10.387Z,30.88
2019-05-19T01:33:40.792Z,31.10
2019-05-19T01:36:11.258Z,28.53
2019-05-19T01:38:41.854Z,26.97
2019-05-19T01:41:12.287Z,29.50
2019-05-19T01:43:43.094Z,39.20
2019-05-19T01:46:13.526Z,34.27
2019-05-19T01:48:43.858Z,27.22
2019-05-19T01:51:14.080Z,29.30
2019-05-19T01:53:44.588Z,27.73
2019-05-19T01:56:14.808Z,27.15
2019-05-19T01:58:45.250Z,27.17
2019-05-19T02:01:15.573Z,29.57
2019-05-19T02:03:46.310Z,26.77
2019-05-19T02:06:16.666Z,26.10
2019-05-19T02:08:46.929Z,31.75
2019-05-19T02:11:17.436Z,24.98
2019-05-19T02:13:47.788Z,23.67
2019-05-19T02:16:18.249Z,23.92
2019-05-19T02:18:48.869Z,28.07
2019-05-19T02:21:19.077Z,29.15
2019-05-19T02:23:49.431Z,25.00
2019-05-19T02:26:19.900Z,29.55
2019-05-19T02:28:50.115Z,25.57
2019-05-19T02:31:20.630Z,25.68
2019-05-19T02:33:51.058Z,31.10
2019-05-19T02:36:21.301Z,24.40
2019-05-19T02:38:51.873Z,24.30
2019-05-19T02:41:23.910Z,27.90
2019-05-19T02:43:55.611Z,23.65
2019-05-19T02:46:27.462Z,25.87
2019-05-19T02:48:59.326Z,24.90
2019-05-19T02:51:32.638Z,32.40
2019-05-19T02:54:03.206Z,21.83
2019-05-19T02:56:34.537Z,27.62
2019-05-19T02:59:06.395Z,22.97
2019-05-19T03:01:38.131Z,26.20
2019-05-19T03:04:08.458Z,23.15
2019-05-19T03:06:38.771Z,26.17
2019-05-19T03:09:09.154Z,23.75
2019-05-19T03:11:39.437Z,21.35
2019-05-19T03:14:10.059Z,33.85
2019-05-19T03:16:40.310Z,22.27
2019-05-19T03:19:10.556Z,24.27
2019-05-19T03:21:40.944Z,23.87
2019-05-19T03:24:11.271Z,24.18
2019-05-19T03:26:41.880Z,22.80
2019-05-19T03:29:13.479Z,21.37
2019-05-19T03:31:45.122Z,22.13
2019-05-19T03:34:15.957Z,23.17
2019-05-19T03:36:46.284Z,22.40
2019-05-19T03:39:16.607Z,21.90
2019-05-19T03:41:47.029Z,27.55
2019-05-19T03:44:17.327Z,24.67
2019-05-19T03:46:47.869Z,22.45
2019-05-19T03:49:18.553Z,24.92
2019-05-19T03:51:48.900Z,23.40
2019-05-19T03:54:19.325Z,23.38
2019-05-19T03:56:50.384Z,21.15
2019-05-19T03:59:21.452Z,25.62
2019-05-19T04:01:51.990Z,25.17
2019-05-19T04:04:22.261Z,24.70
2019-05-19T04:06:52.772Z,25.20
2019-05-19T04:09:23.004Z,22.05
2019-05-19T04:11:53.251Z,29.57
2019-05-19T04:14:23.579Z,21.93
2019-05-19T04:16:53.835Z,22.48
2019-05-19T04:19:24.028Z,22.13
2019-05-19T04:21:54.471Z,22.85
2019-05-19T04:24:24.776Z,21.87
2019-05-19T04:27:17.792Z,22.37
2019-05-19T04:29:48.248Z,22.93
2019-05-19T04:32:18.453Z,22.07
2019-05-19T04:34:48.791Z,20.17
2019-05-19T04:37:18.967Z,23.10
2019-05-19T04:39:49.816Z,27.58
2019-05-19T04:42:20.183Z,21.75
2019-05-19T04:44:50.374Z,20.87
2019-05-19T04:47:20.901Z,20.45
2019-05-19T04:49:51.353Z,21.48
2019-05-19T04:52:21.634Z,22.80
2019-05-19T04:54:52.219Z,22.95
2019-05-19T04:57:22.543Z,22.35
2019-05-19T04:59:52.937Z,18.82
2019-05-19T05:02:23.541Z,21.55
2019-05-19T05:04:54.188Z,25.20
2019-05-19T05:07:25.631Z,20.95
2019-05-19T05:09:55.974Z,22.53
2019-05-19T05:12:26.164Z,20.45
2019-05-19T05:14:56.604Z,23.32
2019-05-19T05:17:27.004Z,26.35
2019-05-19T05:19:57.402Z,23.07
2019-05-19T05:22:27.826Z,25.32
2019-05-19T05:24:58.386Z,19.82
2019-05-19T05:27:28.800Z,21.42
2019-05-19T05:29:58.905Z,23.22
2019-05-19T05:32:29.350Z,21.17
2019-05-19T05:34:59.616Z,26.42
2019-05-19T05:37:29.863Z,24.35
2019-05-19T05:40:00.286Z,23.85
2019-05-19T05:42:31.901Z,24.35
2019-05-19T05:45:02.141Z,22.95
2019-05-19T05:47:32.449Z,24.47
2019-05-19T05:50:03.009Z,24.87
2019-05-19T05:52:38.458Z,28.83
2019-05-19T05:55:06.369Z,31.13
2019-05-19T05:57:36.842Z,22.27
2019-05-19T06:00:09.071Z,23.05
2019-05-19T06:02:39.783Z,21.85
2019-05-19T06:05:10.225Z,21.48
2019-05-19T06:07:40.482Z,22.20
2019-05-19T06:10:11.225Z,21.07
2019-05-19T06:12:41.599Z,22.40
2019-05-19T06:15:12.111Z,22.10
2019-05-19T06:17:42.547Z,22.35
2019-05-19T06:20:13.111Z,21.27
2019-05-19T06:22:55.680Z,22.00
2019-05-19T06:25:15.254Z,20.45
2019-05-19T06:27:45.769Z,20.60
2019-05-19T06:30:17.536Z,21.85
2019-05-19T06:32:49.100Z,23.27
2019-05-19T06:35:20.081Z,25.20
2019-05-19T06:37:51.454Z,22.40
2019-05-19T06:40:23.118Z,23.20
2019-05-19T06:42:53.509Z,19.75
2019-05-19T06:45:24.366Z,20.88
2019-05-19T06:47:54.632Z,26.60
2019-05-19T06:50:24.947Z,21.40
2019-05-19T06:53:11.192Z,22.48
2019-05-19T06:55:27.778Z,22.40
2019-05-19T06:57:57.984Z,20.97
2019-05-19T07:00:28.589Z,20.70
2019-05-19T07:02:58.796Z,22.10
2019-05-19T07:05:29.035Z,21.77
2019-05-19T07:07:59.429Z,22.40
2019-05-19T07:10:29.691Z,22.82
2019-05-19T07:12:59.890Z,20.75
2019-05-19T07:15:30.313Z,21.53
2019-05-19T07:18:00.492Z,22.00
2019-05-19T07:20:30.931Z,23.00
2019-05-19T07:23:01.184Z,22.13
2019-05-19T07:25:31.363Z,23.05
2019-05-19T07:28:01.892Z,18.32
2019-05-19T07:30:32.314Z,18.77
2019-05-19T07:33:03.053Z,23.25
2019-05-19T07:35:33.328Z,17.15
2019-05-19T07:38:03.500Z,24.00
2019-05-19T07:40:33.782Z,22.32
2019-05-19T07:43:04.117Z,17.70
2019-05-19T07:45:34.463Z,26.77
2019-05-19T07:48:04.850Z,43.73
2019-05-19T07:50:37.963Z,18.73
2019-05-19T07:53:07.385Z,21.50
2019-05-19T07:55:37.617Z,27.45
2019-05-19T07:58:08.054Z,19.30
2019-05-19T08:00:38.362Z,19.57
2019-05-19T08:03:08.675Z,17.73
2019-05-19T08:05:38.769Z,22.75
2019-05-19T08:08:09.098Z,21.77
2019-05-19T08:10:39.202Z,19.87
2019-05-19T08:13:09.731Z,20.00
2019-05-19T08:15:39.974Z,18.70
2019-05-19T08:18:10.346Z,19.48
2019-05-19T08:20:40.666Z,16.60
2019-05-19T08:23:10.837Z,19.73
2019-05-19T08:25:41.263Z,21.17
2019-05-19T08:28:11.864Z,20.05
2019-05-19T08:30:42.247Z,21.02
2019-05-19T08:33:12.427Z,21.52
2019-05-19T08:35:42.835Z,20.15
2019-05-19T08:38:13.375Z,19.00
2019-05-19T08:40:43.606Z,18.97
2019-05-19T08:43:14.352Z,19.50
2019-05-19T08:45:44.807Z,20.37
2019-05-19T08:48:15.454Z,19.17
2019-05-19T08:50:45.768Z,22.25
2019-05-19T08:53:16.282Z,21.02
2019-05-19T08:55:46.958Z,21.50
2019-05-19T08:58:17.404Z,19.20
2019-05-19T09:00:47.853Z,19.60
2019-05-19T09:03:18.295Z,19.40
2019-05-19T09:05:58.597Z,17.23
2019-05-19T09:08:30.357Z,21.27
2019-05-19T09:11:00.548Z,19.42
2019-05-19T09:13:30.971Z,17.73
2019-05-19T09:16:01.547Z,20.37
2019-05-19T09:18:31.983Z,20.85
2019-05-19T09:21:02.252Z,17.17
2019-05-19T09:23:32.852Z,20.93
2019-05-19T09:26:03.054Z,21.52
2019-05-19T09:28:33.633Z,21.50
2019-05-19T09:31:04.000Z,19.98
2019-05-19T09:33:34.448Z,20.27
2019-05-19T09:36:04.633Z,21.60
2019-05-19T09:38:34.927Z,20.67
2019-05-19T09:41:05.968Z,20.73
2019-05-19T09:43:36.443Z,18.27
2019-05-19T09:46:09.163Z,17.20
2019-05-19T09:48:39.429Z,20.03
2019-05-19T09:51:09.651Z,18.30
2019-05-19T09:53:39.926Z,18.10
2019-05-19T09:56:10.281Z,22.13
2019-05-19T09:58:41.020Z,18.67
2019-05-19T10:01:11.534Z,19.98
2019-05-19T10:03:41.884Z,22.87
2019-05-19T10:06:12.167Z,16.42
2019-05-19T10:08:44.508Z,18.07
2019-05-19T10:11:17.778Z,21.02
2019-05-19T10:13:47.975Z,19.55
2019-05-19T10:16:18.224Z,20.35
2019-05-19T10:18:48.823Z,24.27
2019-05-19T10:21:19.375Z,24.35
2019-05-19T10:23:49.708Z,36.75
2019-05-19T10:26:19.918Z,113.10
2019-05-19T10:28:50.224Z,58.23
2019-05-19T10:31:20.477Z,50.20
2019-05-19T10:33:50.919Z,40.48
2019-05-19T10:36:21.302Z,47.20
2019-05-19T10:38:51.894Z,55.75
2019-05-19T10:41:22.168Z,52.33
2019-05-19T10:43:53.693Z,34.40
2019-05-19T10:46:23.948Z,30.53
2019-05-19T10:48:54.149Z,37.30
2019-05-19T10:51:24.726Z,33.80
2019-05-19T10:53:55.225Z,27.73
2019-05-19T10:56:25.437Z,22.40
2019-05-19T10:58:55.907Z,19.95
2019-05-19T11:01:26.226Z,18.30
2019-05-19T11:03:56.535Z,27.03
2019-05-19T11:06:26.939Z,24.12
2019-05-19T11:08:57.261Z,24.82
2019-05-19T11:11:27.667Z,20.97
2019-05-19T11:13:57.956Z,21.23
2019-05-19T11:18:54.038Z,22.98
2019-05-19T11:21:24.572Z,20.08
2019-05-19T11:23:54.789Z,24.50
2019-05-19T11:26:25.273Z,27.63
2019-05-19T11:28:55.547Z,30.20
2019-05-19T11:31:25.765Z,29.40
2019-05-19T11:33:56.344Z,31.20
2019-05-19T11:36:26.619Z,32.95
2019-05-19T11:38:56.977Z,28.23
2019-05-19T11:41:27.286Z,34.10
2019-05-19T11:43:57.634Z,34.03
2019-05-19T11:46:27.884Z,34.03
2019-05-19T11:48:58.079Z,35.85
2019-05-19T11:51:28.498Z,30.90
2019-05-19T11:53:59.252Z,39.73
2019-05-19T11:56:31.424Z,30.20
2019-05-19T11:59:01.277Z,34.18
2019-05-19T12:01:31.643Z,31.65
2019-05-19T12:04:02.892Z,33.80
2019-05-19T12:06:39.311Z,28.95
2019-05-19T12:09:07.859Z,30.37
2019-05-19T12:11:38.379Z,32.13
2019-05-19T12:14:08.253Z,34.27
2019-05-19T12:16:38.654Z,31.00
2019-05-19T12:19:09.115Z,28.98
2019-05-19T12:21:39.563Z,28.20
2019-05-19T12:24:09.832Z,27.00
2019-05-19T12:26:40.259Z,28.25
2019-05-19T12:29:10.736Z,27.82
2019-05-19T12:31:40.952Z,28.50
2019-05-19T12:34:11.218Z,29.30
2019-05-19T12:36:41.621Z,30.75
2019-05-19T12:39:13.196Z,36.93
2019-05-19T12:41:43.391Z,32.50
2019-05-19T12:44:13.789Z,30.68
2019-05-19T12:46:44.205Z,30.23
2019-05-19T12:49:14.437Z,32.13
2019-05-19T12:51:44.575Z,31.40
2019-05-19T12:54:15.020Z,36.17
2019-05-19T12:56:45.579Z,32.28
2019-05-19T12:59:15.606Z,35.73
2019-05-19T13:01:45.894Z,36.73
2019-05-19T13:04:16.340Z,33.40
2019-05-19T13:06:46.441Z,35.05
2019-05-19T13:09:16.615Z,38.83
2019-05-19T13:11:47.023Z,28.35
2019-05-19T13:14:17.375Z,24.95
2019-05-19T13:16:47.699Z,29.83
2019-05-19T13:19:18.247Z,28.55
2019-05-19T13:21:48.415Z,31.50
2019-05-19T13:24:18.862Z,32.40
2019-05-19T13:26:56.530Z,36.10
2019-05-19T13:29:21.683Z,25.95
2019-05-19T13:31:51.862Z,29.05
2019-05-19T13:34:22.183Z,35.45
2019-05-19T13:36:52.528Z,27.90
2019-05-19T13:39:23.623Z,28.65
2019-05-19T13:41:53.769Z,28.67
2019-05-19T13:44:24.659Z,33.98
2019-05-19T13:46:54.819Z,33.60
2019-05-19T13:49:25.034Z,28.40
2019-05-19T13:51:55.672Z,28.27
2019-05-19T13:54:26.021Z,30.10
2019-05-19T13:57:09.961Z,32.83
2019-05-19T13:59:28.119Z,31.20
2019-05-19T14:01:58.468Z,31.93
2019-05-19T14:04:28.963Z,33.97
2019-05-19T14:06:59.410Z,28.95
2019-05-19T14:09:29.633Z,31.50
2019-05-19T14:12:00.083Z,31.68
2019-05-19T14:14:30.524Z,32.80
2019-05-19T14:17:00.947Z,34.60
2019-05-19T14:19:31.306Z,33.00
2019-05-19T14:22:01.540Z,30.48
2019-05-19T14:24:31.869Z,34.80
2019-05-19T14:27:02.147Z,27.07
2019-05-19T14:29:32.742Z,27.42
2019-05-19T14:32:02.980Z,28.00
2019-05-19T14:34:33.138Z,28.65
2019-05-19T14:37:03.729Z,28.98
2019-05-19T14:39:34.232Z,33.10
2019-05-19T14:42:05.837Z,29.73
2019-05-19T14:44:36.173Z,29.15
2019-05-19T14:47:06.619Z,30.77
2019-05-19T14:49:36.899Z,33.38
2019-05-19T14:52:07.276Z,31.68
2019-05-19T14:54:37.631Z,27.70
2019-05-19T14:57:07.937Z,25.57
2019-05-19T14:59:38.320Z,28.40
2019-05-19T15:02:08.661Z,26.70
2019-05-19T15:04:39.045Z,30.57
2019-05-19T15:07:09.442Z,27.15
2019-05-19T15:09:39.888Z,30.13
2019-05-19T15:12:10.323Z,29.57
2019-05-19T15:14:40.666Z,28.67
2019-05-19T15:17:11.320Z,26.05
2019-05-19T15:19:41.936Z,31.93
2019-05-19T15:22:12.205Z,27.53
2019-05-19T15:24:42.730Z,29.27
2019-05-19T15:27:13.008Z,28.90
2019-05-19T15:29:43.092Z,25.92
2019-05-19T15:32:13.368Z,29.85
2019-05-19T15:34:43.696Z,27.50
2019-05-19T15:37:14.025Z,34.30
2019-05-19T15:39:44.631Z,30.97
2019-05-19T15:42:14.911Z,33.50
2019-05-19T15:44:45.057Z,33.23
2019-05-19T15:47:15.468Z,30.32
2019-05-19T15:49:45.978Z,28.45
2019-05-19T15:52:16.319Z,27.22
2019-05-19T15:54:46.803Z,32.98
2019-05-19T15:57:17.250Z,27.70
2019-05-19T15:59:47.579Z,26.07
2019-05-19T16:02:18.317Z,31.95
2019-05-19T16:04:48.699Z,28.30
2019-05-19T16:07:18.825Z,30.02
2019-05-19T16:09:49.211Z,28.15
2019-05-19T16:12:19.688Z,29.95
2019-05-19T16:14:50.381Z,25.60
2019-05-19T16:17:20.919Z,27.57
2019-05-19T16:19:51.788Z,31.65
2019-05-19T16:22:22.131Z,27.65
2019-05-19T16:24:52.559Z,25.27
2019-05-19T16:27:22.721Z,25.40
2019-05-19T16:29:53.056Z,29.83
2019-05-19T16:32:23.333Z,26.77
2019-05-19T16:34:53.755Z,29.10
2019-05-19T16:37:24.251Z,25.45
2019-05-19T16:39:54.573Z,28.03
2019-05-19T16:42:24.971Z,28.42
2019-05-19T16:44:55.388Z,27.80
2019-05-19T16:47:25.618Z,28.00
2019-05-19T16:49:56.468Z,30.80
2019-05-19T16:52:26.799Z,28.73
2019-05-19T16:54:58.313Z,26.50
2019-05-19T16:57:28.623Z,29.50
2019-05-19T16:59:58.846Z,25.65
2019-05-19T17:02:29.311Z,26.02
2019-05-19T17:04:59.590Z,29.25
2019-05-19T17:07:29.810Z,28.30
2019-05-19T17:10:00.164Z,28.00
2019-05-19T17:12:30.439Z,28.98
2019-05-19T17:15:00.867Z,30.77
2019-05-19T17:17:31.075Z,29.37
2019-05-19T17:20:01.336Z,30.95
2019-05-19T17:22:31.731Z,23.87
2019-05-19T17:25:02.031Z,24.52
2019-05-19T17:27:32.563Z,25.85
2019-05-19T17:30:02.859Z,28.35
2019-05-19T17:32:33.312Z,29.48
2019-05-19T17:35:03.876Z,29.30
2019-05-19T17:37:34.124Z,27.22
2019-05-19T17:40:04.659Z,25.30
2019-05-19T17:42:37.155Z,26.52
2019-05-19T17:45:08.256Z,27.60
2019-05-19T17:47:38.927Z,26.02
2019-05-19T17:50:10.089Z,30.55
2019-05-19T17:52:40.679Z,26.35
2019-05-19T17:55:11.453Z,27.80
2019-05-19T17:57:42.574Z,28.90
2019-05-19T18:00:14.075Z,25.20
2019-05-19T18:02:44.616Z,23.15
2019-05-19T18:05:14.946Z,27.00
2019-05-19T18:07:45.291Z,23.98
2019-05-19T18:10:15.943Z,23.57
2019-05-19T18:12:46.040Z,25.17
2019-05-19T18:15:16.525Z,28.05
2019-05-19T18:17:47.075Z,26.00
2019-05-19T18:20:23.640Z,30.80
2019-05-19T18:22:49.358Z,26.35
2019-05-19T18:25:19.870Z,24.52
2019-05-19T18:27:50.063Z,29.60
2019-05-19T18:30:20.547Z,27.42
2019-05-19T18:32:50.810Z,27.10
2019-05-19T18:35:21.159Z,24.23
2019-05-19T18:37:51.430Z,28.32
2019-05-19T18:40:22.497Z,30.75
2019-05-19T18:42:52.955Z,30.83
2019-05-19T18:45:23.386Z,31.02
2019-05-19T18:47:53.629Z,29.65
2019-05-19T18:50:24.102Z,26.12
2019-05-19T18:52:54.425Z,27.22
2019-05-19T18:55:24.708Z,26.97
2019-05-19T18:57:55.377Z,26.35
2019-05-19T19:00:28.393Z,29.82
2019-05-19T19:02:58.806Z,23.87
2019-05-19T19:05:28.999Z,28.40
2019-05-19T19:07:59.591Z,26.13
2019-05-19T19:10:29.975Z,26.12
2019-05-19T19:13:00.477Z,25.20
2019-05-19T19:15:30.960Z,22.10
2019-05-19T19:18:01.151Z,26.40
2019-05-19T19:20:31.809Z,28.10
2019-05-19T19:23:02.292Z,26.87
2019-05-19T19:25:32.823Z,27.58
2019-05-19T19:28:03.254Z,27.98
2019-05-19T19:30:33.780Z,27.58
2019-05-19T19:33:04.127Z,25.27
2019-05-19T19:35:39.213Z,24.70
2019-05-19T19:38:06.328Z,28.30
2019-05-19T19:40:36.583Z,24.60
2019-05-19T19:43:07.231Z,23.60
2019-05-19T19:45:37.721Z,25.20
2019-05-19T19:48:08.790Z,28.40
2019-05-19T19:50:39.084Z,24.15
2019-05-19T19:53:09.258Z,25.82
2019-05-19T19:55:39.686Z,28.92
2019-05-19T19:58:10.125Z,24.67
2019-05-19T20:00:42.736Z,27.60
2019-05-19T20:03:14.009Z,27.13
2019-05-19T20:05:44.606Z,25.08
2019-05-19T20:08:15.158Z,26.07
2019-05-19T20:10:45.585Z,26.07
2019-05-19T20:13:16.065Z,25.53
2019-05-19T20:15:46.503Z,26.62
2019-05-19T20:18:16.912Z,24.90
2019-05-19T20:20:47.307Z,25.43
2019-05-19T20:23:17.631Z,27.00
2019-05-19T20:25:48.179Z,24.33
2019-05-19T20:28:18.998Z,24.60
2019-05-19T20:30:49.177Z,24.57
2019-05-19T20:33:19.791Z,24.43
2019-05-19T20:35:50.138Z,25.62
2019-05-19T20:38:20.422Z,28.35
2019-05-19T20:40:50.722Z,25.25
2019-05-19T20:43:21.112Z,26.12
2019-05-19T20:45:51.500Z,29.23
2019-05-19T20:48:21.721Z,27.37
2019-05-19T20:50:52.235Z,32.63
2019-05-19T20:53:22.639Z,27.25
2019-05-19T20:55:53.026Z,29.20
2019-05-19T20:58:23.308Z,25.40
2019-05-19T21:00:54.008Z,29.63
2019-05-19T21:03:24.387Z,25.65
2019-05-19T21:05:54.477Z,27.58
2019-05-19T21:08:25.069Z,26.57
2019-05-19T21:10:55.382Z,27.37
2019-05-19T21:13:25.470Z,29.57
2019-05-19T21:15:55.809Z,24.77
2019-05-19T21:18:26.146Z,28.83
2019-05-19T21:20:56.304Z,27.42
2019-05-19T21:23:26.623Z,26.30
2019-05-19T21:25:57.326Z,28.60
2019-05-19T21:28:27.650Z,29.12
2019-05-19T21:31:06.054Z,24.23
2019-05-19T21:33:29.711Z,25.60
2019-05-19T21:36:00.073Z,27.62
2019-05-19T21:38:30.348Z,28.53
2019-05-19T21:41:00.570Z,27.73
2019-05-19T21:43:30.881Z,32.27
2019-05-19T21:46:01.100Z,29.35
2019-05-19T21:48:32.906Z,26.90
2019-05-19T21:51:03.906Z,25.70
2019-05-19T21:53:34.162Z,29.25
2019-05-19T21:56:04.442Z,25.08
2019-05-19T21:58:34.778Z,26.87
2019-05-19T22:01:05.123Z,33.98
2019-05-19T22:03:35.328Z,26.23
2019-05-19T22:06:06.299Z,28.73
2019-05-19T22:08:36.519Z,31.85
2019-05-19T22:11:06.967Z,28.65
2019-05-19T22:13:37.328Z,28.98
2019-05-19T22:16:12.989Z,29.23
2019-05-19T22:18:39.377Z,29.60
2019-05-19T22:21:09.859Z,32.23
2019-05-19T22:23:40.228Z,29.57
2019-05-19T22:26:10.758Z,31.30
2019-05-19T22:28:41.124Z,34.83
2019-05-19T22:31:11.375Z,31.17
2019-05-19T22:33:41.895Z,29.25
2019-05-19T22:36:12.162Z,29.98
2019-05-19T22:38:42.434Z,28.13
2019-05-19T22:41:12.814Z,32.95
2019-05-19T22:43:43.168Z,28.35
2019-05-19T22:46:13.501Z,27.20
2019-05-19T22:48:44.020Z,32.58
2019-05-19T22:51:14.457Z,29.77
2019-05-19T22:53:44.650Z,31.97
2019-05-19T22:56:15.047Z,27.40
2019-05-19T23:01:24.415Z,31.97
2019-05-19T23:03:54.845Z,29.72
2019-05-19T23:06:25.123Z,30.43
2019-05-19T23:08:55.678Z,27.40
2019-05-19T23:11:25.868Z,30.00
2019-05-19T23:13:56.093Z,29.90
2019-05-19T23:16:26.576Z,35.13
2019-05-19T23:18:56.878Z,35.15
2019-05-19T23:21:27.257Z,30.72
2019-05-19T23:23:57.635Z,32.17
2019-05-19T23:26:27.827Z,37.65
2019-05-19T23:28:58.188Z,34.13
2019-05-19T23:31:28.519Z,28.85
2019-05-19T23:33:58.833Z,30.10
2019-05-19T23:36:29.072Z,30.32
2019-05-19T23:38:59.494Z,30.72
2019-05-19T23:41:30.002Z,30.75
2019-05-19T23:44:00.263Z,29.30
2019-05-19T23:46:31.037Z,28.97
2019-05-19T23:49:01.503Z,30.50
2019-05-19T23:51:31.982Z,28.67
2019-05-19T23:54:02.209Z,25.35
2019-05-19T23:56:32.772Z,27.60
2019-05-19T23:59:03.193Z,27.87
